Time;durP1;ratioP1;P1;durP2;ratioP2;P2;SDS_P1;SDS_P2;PMS_P1;PMS_P2;Temp;Humidity;BMP_temperature;BMP_pressure;BME280_temperature;BME280_humidity;BME280_pressure;Samples;Min_cycle;Max_cycle;Signal;HPM_P1;HPM_P2
2023/06/26 00:01:58;;;;;;;12.10;8.50;;;17.20;65.20;;;;;;5025049;28;20215;-62
2023/06/26 00:04:23;;;;;;;10.43;8.03;;;17.20;65.30;;;;;;5025912;28;20179;-65
2023/06/26 00:06:49;;;;;;;17.03;8.80;;;17.10;65.30;;;;;;5028039;28;20233;-61
2023/06/26 00:09:15;;;;;;;11.30;7.93;;;17.10;65.60;;;;;;5024785;28;20677;-62
2023/06/26 00:11:40;;;;;;;12.20;7.50;;;17.10;65.70;;;;;;5027546;28;20188;-63
2023/06/26 00:14:06;;;;;;;14.57;8.60;;;17.10;66.40;;;;;;5026583;28;20180;-63
2023/06/26 00:16:32;;;;;;;13.10;8.07;;;17.00;66.60;;;;;;5023802;28;20263;-61
2023/06/26 00:18:58;;;;;;;9.13;7.10;;;17.00;67.00;;;;;;5017717;28;20239;-63
2023/06/26 00:21:25;;;;;;;7.97;6.50;;;17.00;67.40;;;;;;5025320;28;20242;-63
2023/06/26 00:23:51;;;;;;;12.80;8.03;;;16.90;67.40;;;;;;5025619;28;21269;-63
2023/06/26 00:26:17;;;;;;;12.33;8.40;;;16.90;67.80;;;;;;5028717;28;20429;-61
2023/06/26 00:28:42;;;;;;;11.07;8.17;;;16.90;68.30;;;;;;5026358;28;20439;-63
2023/06/26 00:31:08;;;;;;;11.17;7.70;;;16.80;68.50;;;;;;5024383;28;20172;-63
2023/06/26 00:33:33;;;;;;;12.27;8.00;;;16.80;69.10;;;;;;5021073;28;20179;-63
2023/06/26 00:35:59;;;;;;;14.30;8.23;;;16.80;69.00;;;;;;5022078;28;20657;-63
2023/06/26 00:38:25;;;;;;;14.13;8.07;;;16.70;69.50;;;;;;5029003;28;20223;-65
2023/06/26 00:40:50;;;;;;;10.30;8.10;;;16.70;70.10;;;;;;5022545;28;20188;-62
2023/06/26 00:43:16;;;;;;;10.80;7.30;;;16.70;70.60;;;;;;5024707;28;20183;-62
2023/06/26 00:45:42;;;;;;;11.00;7.90;;;16.60;70.70;;;;;;5027080;28;20175;-63
2023/06/26 00:48:11;;;;;;;13.13;9.20;;;16.60;71.30;;;;;;5039571;28;20222;-65
2023/06/26 00:50:37;;;;;;;17.23;9.07;;;16.60;71.70;;;;;;5044224;28;20199;-64
2023/06/26 00:53:03;;;;;;;11.50;7.73;;;16.50;72.00;;;;;;5038271;28;20473;-62
2023/06/26 00:55:29;;;;;;;11.70;8.03;;;16.50;71.60;;;;;;5046060;28;20179;-63
2023/06/26 00:57:55;;;;;;;14.23;8.80;;;16.50;72.50;;;;;;5020948;28;20458;-63
2023/06/26 01:00:21;;;;;;;10.57;7.50;;;16.50;72.50;;;;;;5027380;28;20184;-62
2023/06/26 01:02:47;;;;;;;12.67;8.40;;;16.40;72.50;;;;;;5024253;28;20454;-63
2023/06/26 01:05:20;;;;;;;11.43;8.50;;;16.40;73.10;;;;;;5028024;28;20184;-63
2023/06/26 01:07:48;;;;;;;12.10;7.57;;;16.40;73.60;;;;;;5025970;28;20196;-62
2023/06/26 01:10:13;;;;;;;13.40;8.50;;;16.30;73.70;;;;;;5024600;28;20970;-64
2023/06/26 01:12:39;;;;;;;14.90;8.73;;;16.30;74.20;;;;;;5027144;28;20526;-61
2023/06/26 01:15:06;;;;;;;10.87;7.60;;;16.30;75.10;;;;;;5026558;28;20189;-64
2023/06/26 01:17:32;;;;;;;11.13;8.03;;;16.20;75.60;;;;;;5022691;28;20204;-60
2023/06/26 01:20:06;;;;;;;13.20;7.90;;;16.20;76.20;;;;;;5023065;28;20447;-61
2023/06/26 01:22:44;;;;;;;13.67;7.87;;;16.20;76.20;;;;;;5019728;28;20511;-62
2023/06/26 01:25:38;;;;;;;12.63;8.23;;;16.10;76.70;;;;;;5025062;28;20434;-63
2023/06/26 01:28:06;;;;;;;11.40;8.03;;;16.10;77.10;;;;;;5024977;28;20485;-63
2023/06/26 01:30:33;;;;;;;11.53;8.07;;;16.10;77.50;;;;;;5020770;28;20431;-61
2023/06/26 01:33:01;;;;;;;12.67;7.33;;;16.10;78.00;;;;;;5024772;28;20448;-63
2023/06/26 01:35:27;;;;;;;14.93;8.90;;;16.00;78.10;;;;;;5022934;28;20481;-62
2023/06/26 01:37:53;;;;;;;11.77;7.97;;;16.00;79.20;;;;;;5021970;28;20478;-62
2023/06/26 01:40:18;;;;;;;12.47;7.50;;;15.90;79.80;;;;;;5021043;28;20439;-62
2023/06/26 01:42:44;;;;;;;11.97;8.37;;;15.90;80.40;;;;;;5020944;28;20211;-63
2023/06/26 01:45:25;;;;;;;12.00;8.87;;;15.90;80.20;;;;;;5022268;28;20187;-65
2023/06/26 01:47:52;;;;;;;15.77;8.70;;;15.90;79.90;;;;;;5019634;28;20204;-63
2023/06/26 01:50:24;;;;;;;14.23;8.80;;;15.90;79.80;;;;;;5024593;28;20468;-62
2023/06/26 01:53:17;;;;;;;9.67;7.47;;;15.80;80.60;;;;;;5020064;28;20580;-60
2023/06/26 01:56:03;;;;;;;13.87;8.40;;;15.80;81.60;;;;;;5017045;28;20439;-62
2023/06/26 01:58:30;;;;;;;10.37;7.83;;;15.80;81.90;;;;;;5026705;28;20531;-62
2023/06/26 02:00:55;;;;;;;12.17;8.43;;;15.70;82.30;;;;;;5024363;28;20426;-61
2023/06/26 02:03:24;;;;;;;11.73;8.60;;;15.70;82.50;;;;;;5020558;28;20516;-62
2023/06/26 02:05:50;;;;;;;10.27;8.03;;;15.70;82.60;;;;;;5020339;28;20176;-61
2023/06/26 02:08:16;;;;;;;10.50;7.60;;;15.70;83.10;;;;;;5016213;28;20576;-60
2023/06/26 02:10:41;;;;;;;12.10;8.00;;;15.70;83.00;;;;;;5023143;28;20427;-60
2023/06/26 02:13:07;;;;;;;12.50;8.40;;;15.70;83.70;;;;;;5022586;28;20230;-62
2023/06/26 02:15:33;;;;;;;12.83;8.77;;;15.70;83.50;;;;;;5020520;28;20952;-64
2023/06/26 02:17:58;;;;;;;14.90;9.73;;;15.60;84.30;;;;;;5017713;28;20212;-59
2023/06/26 02:20:24;;;;;;;13.47;8.73;;;15.60;85.20;;;;;;5022290;28;20199;-62
2023/06/26 02:22:49;;;;;;;15.03;8.60;;;15.60;85.60;;;;;;5020537;28;20204;-62
2023/06/26 02:25:15;;;;;;;12.40;8.90;;;15.50;86.30;;;;;;5022808;28;20552;-65
2023/06/26 02:27:42;;;;;;;11.73;8.33;;;15.50;87.60;;;;;;5013336;28;20259;-62
2023/06/26 02:30:09;;;;;;;12.20;8.87;;;15.40;88.70;;;;;;5017948;28;20741;-63
2023/06/26 02:32:34;;;;;;;11.90;8.37;;;15.40;90.00;;;;;;5023536;28;20430;-62
2023/06/26 02:35:00;;;;;;;11.80;8.57;;;15.30;90.30;;;;;;5021894;28;22636;-63
2023/06/26 02:37:26;;;;;;;11.40;8.50;;;15.30;90.30;;;;;;5023860;28;20238;-64
2023/06/26 02:39:51;;;;;;;11.10;8.60;;;15.30;90.00;;;;;;5015037;28;21247;-63
2023/06/26 02:42:17;;;;;;;11.80;8.80;;;15.30;90.10;;;;;;5017102;28;20216;-63
2023/06/26 02:44:42;;;;;;;12.97;8.90;;;15.30;90.50;;;;;;5023026;28;20179;-64
2023/06/26 02:47:08;;;;;;;13.60;10.00;;;15.30;90.60;;;;;;5021898;28;20176;-63
2023/06/26 02:49:33;;;;;;;13.07;9.17;;;15.30;90.70;;;;;;5024676;28;20258;-61
2023/06/26 02:51:59;;;;;;;14.20;9.10;;;15.20;90.80;;;;;;5020823;28;20653;-64
2023/06/26 02:54:24;;;;;;;12.77;8.50;;;15.20;91.00;;;;;;5021790;28;20294;-62
2023/06/26 02:56:50;;;;;;;13.17;8.60;;;15.10;90.90;;;;;;5018894;28;20188;-63
2023/06/26 02:59:16;;;;;;;12.23;8.43;;;15.10;91.10;;;;;;5019901;28;20259;-61
2023/06/26 03:01:41;;;;;;;15.53;9.23;;;15.10;91.10;;;;;;5024458;28;20199;-64
2023/06/26 03:04:08;;;;;;;12.67;8.50;;;15.10;91.50;;;;;;5020986;28;20616;-60
2023/06/26 03:06:33;;;;;;;13.00;8.80;;;15.10;91.60;;;;;;5022486;28;20187;-60
2023/06/26 03:08:59;;;;;;;13.27;8.73;;;15.00;92.20;;;;;;5023331;28;20442;-62
2023/06/26 03:11:24;;;;;;;12.27;8.80;;;15.00;92.00;;;;;;5019765;28;20199;-63
2023/06/26 03:13:50;;;;;;;12.97;8.53;;;15.00;92.20;;;;;;5023207;28;20600;-64
2023/06/26 03:16:16;;;;;;;13.20;9.00;;;14.90;92.40;;;;;;5025811;28;20199;-62
2023/06/26 03:18:41;;;;;;;12.00;8.70;;;14.90;92.90;;;;;;5026423;28;20200;-63
2023/06/26 03:21:08;;;;;;;11.23;8.73;;;14.90;92.90;;;;;;5016680;28;20212;-62
2023/06/26 03:23:34;;;;;;;13.00;9.30;;;14.90;93.30;;;;;;5022491;28;20172;-60
2023/06/26 03:26:00;;;;;;;11.93;9.13;;;14.90;93.50;;;;;;5022982;28;20496;-63
2023/06/26 03:28:25;;;;;;;14.10;9.20;;;14.90;93.90;;;;;;5024538;28;20216;-63
2023/06/26 03:30:51;;;;;;;14.33;9.33;;;14.80;93.80;;;;;;5025745;28;20184;-62
2023/06/26 03:33:16;;;;;;;14.57;9.30;;;14.80;93.90;;;;;;5017127;28;20559;-60
2023/06/26 03:35:42;;;;;;;13.13;9.40;;;14.80;94.20;;;;;;5023733;28;20187;-61
2023/06/26 03:38:08;;;;;;;14.37;9.20;;;14.70;94.40;;;;;;5019619;28;20203;-64
2023/06/26 03:40:33;;;;;;;14.07;9.87;;;14.70;94.80;;;;;;5022469;28;20175;-60
2023/06/26 03:42:59;;;;;;;12.67;9.03;;;14.70;95.30;;;;;;5023334;28;20212;-59
2023/06/26 03:45:24;;;;;;;15.67;9.40;;;14.60;96.00;;;;;;5022384;28;20191;-61
2023/06/26 03:47:50;;;;;;;12.63;9.80;;;14.60;96.20;;;;;;5020185;28;20195;-61
2023/06/26 03:50:16;;;;;;;10.93;8.73;;;14.60;96.10;;;;;;5021204;28;20275;-61
2023/06/26 03:52:42;;;;;;;15.67;10.17;;;14.70;96.00;;;;;;5016166;28;20188;-65
2023/06/26 03:55:08;;;;;;;15.27;9.57;;;14.70;96.30;;;;;;5018582;28;20442;-62
2023/06/26 03:57:34;;;;;;;20.90;10.40;;;14.70;96.40;;;;;;5017191;28;20978;-61
2023/06/26 03:59:59;;;;;;;14.43;9.60;;;14.70;96.00;;;;;;5016647;28;20434;-62
2023/06/26 04:02:25;;;;;;;15.30;10.50;;;14.70;96.30;;;;;;5021206;28;20700;-61
2023/06/26 04:04:52;;;;;;;13.47;8.77;;;14.70;96.50;;;;;;5002793;28;20670;-60
2023/06/26 04:07:18;;;;;;;13.57;9.30;;;14.80;96.60;;;;;;5022777;28;20199;-60
2023/06/26 04:09:44;;;;;;;14.80;9.60;;;14.80;96.70;;;;;;5013363;28;21040;-63
2023/06/26 04:12:10;;;;;;;12.97;9.67;;;14.80;96.80;;;;;;5019816;28;20529;-63
2023/06/26 04:14:36;;;;;;;15.23;9.53;;;14.80;96.40;;;;;;5019749;28;20187;-62
2023/06/26 04:17:03;;;;;;;14.57;9.60;;;14.80;96.20;;;;;;5025959;28;20524;-62
2023/06/26 04:19:29;;;;;;;13.80;9.30;;;14.80;96.20;;;;;;5020553;28;22343;-61
2023/06/26 04:21:55;;;;;;;14.93;9.73;;;14.90;96.40;;;;;;5017595;28;20815;-60
2023/06/26 04:24:21;;;;;;;15.43;10.10;;;14.80;96.20;;;;;;5027375;28;20449;-61
2023/06/26 04:26:46;;;;;;;18.63;9.77;;;14.90;96.30;;;;;;5017283;28;20841;-58
2023/06/26 04:29:12;;;;;;;12.93;9.57;;;14.90;96.30;;;;;;5021200;28;20761;-59
2023/06/26 04:31:38;;;;;;;16.03;10.40;;;14.80;95.70;;;;;;5019590;28;20184;-59
2023/06/26 04:34:04;;;;;;;14.23;9.13;;;14.80;96.10;;;;;;5014221;28;20175;-60
2023/06/26 04:36:31;;;;;;;15.23;10.17;;;14.80;96.30;;;;;;5015901;28;21424;-60
2023/06/26 04:38:57;;;;;;;14.77;10.43;;;14.80;96.40;;;;;;5018257;28;20602;-58
2023/06/26 04:41:22;;;;;;;15.90;9.87;;;14.80;96.70;;;;;;5002916;28;20473;-58
2023/06/26 04:43:48;;;;;;;17.37;9.93;;;14.90;97.70;;;;;;5016024;28;20443;-58
2023/06/26 04:46:14;;;;;;;17.13;11.03;;;14.90;96.20;;;;;;5013919;28;20218;-61
2023/06/26 04:48:39;;;;;;;13.07;9.40;;;15.00;96.00;;;;;;5021804;28;20290;-62
2023/06/26 04:51:05;;;;;;;15.73;10.20;;;15.00;95.90;;;;;;5016501;28;20274;-60
2023/06/26 04:53:30;;;;;;;15.37;8.53;;;15.10;96.30;;;;;;5018963;28;20190;-60
2023/06/26 04:55:56;;;;;;;15.17;10.33;;;15.20;95.80;;;;;;5023041;28;20204;-61
2023/06/26 04:58:22;;;;;;;12.83;9.10;;;15.30;94.90;;;;;;5023959;28;20200;-60
2023/06/26 05:00:48;;;;;;;13.73;8.73;;;15.40;94.50;;;;;;5024740;28;20175;-60
2023/06/26 05:03:16;;;;;;;15.20;10.07;;;15.40;93.80;;;;;;5024629;28;20219;-63
2023/06/26 05:05:42;;;;;;;13.80;9.10;;;15.50;94.00;;;;;;5023801;28;20191;-59
2023/06/26 05:08:20;;;;;;;13.53;9.20;;;15.60;94.00;;;;;;5022914;28;20982;-59
2023/06/26 05:10:46;;;;;;;14.03;9.53;;;15.60;93.60;;;;;;5027291;28;20258;-59
2023/06/26 05:13:15;;;;;;;11.60;9.17;;;15.70;93.40;;;;;;5023900;28;20449;-61
2023/06/26 05:15:41;;;;;;;15.10;9.00;;;15.70;92.40;;;;;;5028236;28;20188;-61
2023/06/26 05:18:07;;;;;;;15.17;9.80;;;15.80;91.00;;;;;;5022021;28;21139;-58
2023/06/26 05:20:34;;;;;;;15.10;10.30;;;15.80;90.90;;;;;;5016108;28;20426;-59
2023/06/26 05:23:04;;;;;;;15.87;10.17;;;15.90;91.30;;;;;;5021311;28;20711;-63
2023/06/26 05:25:30;;;;;;;19.77;11.10;;;15.90;91.00;;;;;;5019660;28;20422;-62
2023/06/26 05:27:57;;;;;;;20.83;11.63;;;16.00;91.00;;;;;;5030300;28;20506;-61
2023/06/26 05:30:27;;;;;;;18.33;11.80;;;16.00;91.70;;;;;;5021535;28;20431;-58
2023/06/26 05:32:54;;;;;;;21.30;13.60;;;16.10;92.20;;;;;;5016723;28;20442;-59
2023/06/26 05:35:23;;;;;;;27.80;15.00;;;16.20;91.90;;;;;;5021022;28;20430;-60
2023/06/26 05:37:50;;;;;;;30.37;18.10;;;16.30;91.40;;;;;;5000547;28;20470;-60
2023/06/26 05:40:17;;;;;;;30.10;15.93;;;16.30;89.90;;;;;;5023214;28;22346;-60
2023/06/26 05:42:43;;;;;;;31.70;16.07;;;16.30;90.50;;;;;;5023510;28;21104;-60
2023/06/26 05:45:09;;;;;;;26.50;14.87;;;16.40;90.50;;;;;;5031043;28;20437;-60
2023/06/26 05:47:35;;;;;;;20.27;13.70;;;16.50;90.30;;;;;;5021255;28;20196;-59
2023/06/26 05:50:01;;;;;;;19.83;12.97;;;16.60;90.60;;;;;;5021567;28;20430;-59
2023/06/26 05:52:27;;;;;;;18.23;13.20;;;16.70;90.40;;;;;;5022188;28;20271;-62
2023/06/26 05:54:54;;;;;;;17.60;11.40;;;16.80;90.10;;;;;;5023233;28;20563;-59
2023/06/26 05:57:20;;;;;;;19.90;11.20;;;16.90;89.30;;;;;;5020712;28;20184;-58
2023/06/26 05:59:47;;;;;;;18.83;11.23;;;17.00;88.90;;;;;;5018415;28;20439;-59
2023/06/26 06:02:13;;;;;;;18.07;11.03;;;17.10;85.90;;;;;;5021457;28;20558;-59
2023/06/26 06:04:39;;;;;;;19.07;11.90;;;17.20;86.90;;;;;;5014659;28;20443;-60
2023/06/26 06:07:05;;;;;;;15.10;11.07;;;17.30;88.30;;;;;;5016775;28;20436;-59
2023/06/26 06:09:31;;;;;;;15.63;9.57;;;17.40;88.10;;;;;;5015589;28;20685;-60
2023/06/26 06:11:56;;;;;;;19.63;11.67;;;17.60;87.80;;;;;;5019681;28;20176;-61
2023/06/26 06:14:22;;;;;;;16.90;10.57;;;17.70;86.30;;;;;;5016961;28;20191;-61
2023/06/26 06:16:47;;;;;;;16.33;10.73;;;17.90;84.30;;;;;;5015356;28;20188;-59
2023/06/26 06:19:13;;;;;;;14.97;10.27;;;18.00;81.60;;;;;;5017418;28;20381;-59
2023/06/26 06:21:39;;;;;;;24.23;10.77;;;18.10;79.10;;;;;;5020007;28;20211;-61
2023/06/26 06:24:06;;;;;;;16.90;11.93;;;18.20;78.70;;;;;;5019030;28;20618;-60
2023/06/26 06:26:32;;;;;;;16.47;11.50;;;18.30;79.60;;;;;;5018595;28;20171;-59
2023/06/26 06:28:58;;;;;;;17.20;12.17;;;18.40;78.60;;;;;;5024037;28;20810;-59
2023/06/26 06:31:23;;;;;;;25.50;12.13;;;18.50;78.80;;;;;;5024644;28;20449;-61
2023/06/26 06:33:49;;;;;;;19.80;12.83;;;18.60;79.20;;;;;;5023241;28;20386;-60
2023/06/26 06:36:15;;;;;;;17.20;11.93;;;18.70;79.10;;;;;;5021929;28;20253;-61
2023/06/26 06:38:43;;;;;;;28.40;12.87;;;18.80;80.20;;;;;;5019964;28;20306;-60
2023/06/26 06:41:09;;;;;;;16.53;11.83;;;18.90;79.40;;;;;;5019960;28;20192;-60
2023/06/26 06:43:35;;;;;;;18.10;11.30;;;19.10;79.10;;;;;;5023688;28;20423;-60
2023/06/26 06:46:01;;;;;;;19.63;11.60;;;19.20;76.70;;;;;;5023179;28;20180;-59
2023/06/26 06:48:27;;;;;;;14.60;11.23;;;19.30;74.50;;;;;;5020569;28;20947;-60
2023/06/26 06:50:52;;;;;;;19.73;11.90;;;19.40;74.00;;;;;;5016133;28;20203;-62
2023/06/26 06:53:20;;;;;;;24.33;12.00;;;19.50;73.60;;;;;;5023128;28;20179;-60
2023/06/26 06:55:46;;;;;;;17.03;10.77;;;19.60;72.30;;;;;;5015472;28;20211;-60
2023/06/26 06:58:12;;;;;;;18.77;11.70;;;19.70;71.40;;;;;;5017548;28;20478;-60
2023/06/26 07:00:37;;;;;;;14.80;10.53;;;19.80;70.80;;;;;;5020604;28;20226;-62
2023/06/26 07:03:03;;;;;;;18.30;12.50;;;20.00;70.90;;;;;;5017199;28;20673;-61
2023/06/26 07:05:29;;;;;;;15.93;11.83;;;20.10;71.20;;;;;;5016247;28;20172;-60
2023/06/26 07:07:55;;;;;;;19.50;12.40;;;20.20;71.00;;;;;;5011045;28;20457;-59
2023/06/26 07:10:21;;;;;;;19.30;12.43;;;20.40;70.50;;;;;;5022497;28;20998;-60
2023/06/26 07:12:46;;;;;;;24.00;13.40;;;20.50;69.70;;;;;;5022581;28;20176;-59
2023/06/26 07:15:12;;;;;;;24.53;12.50;;;20.60;68.90;;;;;;5021492;28;20183;-60
2023/06/26 07:17:39;;;;;;;20.03;12.47;;;20.80;69.00;;;;;;5022388;28;20192;-58
2023/06/26 07:20:10;;;;;;;20.27;14.30;;;20.90;68.50;;;;;;5014525;28;20188;-60
2023/06/26 07:22:36;;;;;;;24.33;14.10;;;21.00;67.80;;;;;;5022414;28;20466;-59
2023/06/26 07:25:03;;;;;;;18.77;12.43;;;21.10;67.30;;;;;;5023308;28;20430;-57
2023/06/26 07:27:29;;;;;;;20.50;12.80;;;21.20;67.20;;;;;;5022658;28;20455;-59
2023/06/26 07:29:55;;;;;;;20.60;11.60;;;21.40;66.90;;;;;;5022811;28;20430;-58
2023/06/26 07:32:20;;;;;;;17.83;11.10;;;21.50;66.30;;;;;;5015030;28;20180;-60
2023/06/26 07:34:46;;;;;;;20.80;10.80;;;21.60;65.60;;;;;;5018603;28;20736;-58
2023/06/26 07:37:11;;;;;;;16.20;11.47;;;21.80;66.30;;;;;;5026749;28;20188;-59
2023/06/26 07:39:37;;;;;;;17.53;9.07;;;22.00;65.50;;;;;;5029494;28;20176;-60
2023/06/26 07:42:03;;;;;;;20.17;10.77;;;22.10;63.50;;;;;;5027557;28;20195;-59
2023/06/26 07:44:28;;;;;;;16.93;10.97;;;22.30;63.10;;;;;;5023945;28;20172;-60
2023/06/26 07:46:54;;;;;;;18.90;10.53;;;22.40;62.90;;;;;;5021392;28;20183;-60
2023/06/26 07:49:20;;;;;;;14.27;9.00;;;22.60;62.60;;;;;;5022133;28;20638;-58
2023/06/26 07:51:45;;;;;;;15.90;9.27;;;22.70;62.90;;;;;;5022254;28;20183;-58
2023/06/26 07:54:11;;;;;;;10.97;7.70;;;22.90;62.30;;;;;;5022661;28;20688;-59
2023/06/26 07:57:00;;;;;;;14.90;8.73;;;23.00;60.30;;;;;;5021789;28;20176;-59
2023/06/26 07:59:27;;;;;;;11.13;7.40;;;23.20;60.90;;;;;;5016545;28;20286;-60
2023/06/26 08:01:54;;;;;;;13.10;8.23;;;23.40;59.20;;;;;;5024808;28;20459;-60
2023/06/26 08:04:21;;;;;;;18.23;7.80;;;23.60;59.10;;;;;;5026700;28;20493;-61
2023/06/26 08:06:51;;;;;;;8.90;7.57;;;23.80;58.70;;;;;;5030461;28;20414;-59
2023/06/26 08:09:18;;;;;;;9.17;7.00;;;24.00;57.50;;;;;;5027641;28;20442;-59
2023/06/26 08:11:44;;;;;;;11.23;7.27;;;24.20;57.30;;;;;;5023160;28;20431;-59
2023/06/26 08:14:11;;;;;;;7.97;7.17;;;24.50;56.90;;;;;;5017125;28;20501;-59
2023/06/26 08:16:40;;;;;;;9.33;6.80;;;24.70;55.20;;;;;;5026321;28;20441;-60
2023/06/26 08:19:06;;;;;;;11.20;7.33;;;24.90;54.80;;;;;;5026423;28;20519;-57
2023/06/26 08:21:31;;;;;;;7.20;6.10;;;25.00;54.20;;;;;;5027939;28;20466;-57
2023/06/26 08:23:57;;;;;;;9.20;7.60;;;25.00;52.00;;;;;;5023686;28;20180;-63
2023/06/26 08:26:23;;;;;;;10.90;6.90;;;25.00;52.30;;;;;;5018956;28;20258;-61
2023/06/26 08:28:48;;;;;;;7.90;6.40;;;25.10;53.00;;;;;;5024956;28;20321;-59
2023/06/26 08:31:14;;;;;;;12.20;6.53;;;25.20;52.50;;;;;;5026367;28;20713;-59
2023/06/26 08:33:40;;;;;;;8.37;5.70;;;25.30;50.40;;;;;;5027113;28;20233;-57
2023/06/26 08:36:05;;;;;;;8.27;6.47;;;25.30;48.30;;;;;;5028850;28;20224;-61
2023/06/26 08:38:31;;;;;;;6.87;5.83;;;25.40;47.50;;;;;;5022294;28;20301;-58
2023/06/26 08:40:56;;;;;;;6.73;5.30;;;25.40;47.90;;;;;;5022035;28;20176;-59
2023/06/26 08:43:22;;;;;;;8.60;6.33;;;25.50;48.00;;;;;;5018867;28;20226;-59
2023/06/26 08:45:51;;;;;;;9.63;7.20;;;25.60;47.40;;;;;;5018178;28;20719;-59
2023/06/26 08:48:17;;;;;;;8.90;7.17;;;25.70;47.70;;;;;;5029605;28;20286;-57
2023/06/26 08:50:43;;;;;;;13.03;6.10;;;25.70;48.30;;;;;;5024038;28;20439;-59
2023/06/26 08:53:21;;;;;;;9.30;6.10;;;25.80;47.90;;;;;;5022303;28;20434;-60
2023/06/26 08:55:51;;;;;;;7.90;6.80;;;25.90;46.50;;;;;;5027454;28;20473;-60
2023/06/26 08:58:17;;;;;;;7.03;6.30;;;25.90;46.70;;;;;;5029805;28;20485;-57
2023/06/26 09:00:43;;;;;;;8.60;6.37;;;25.90;46.60;;;;;;5028815;28;20457;-59
2023/06/26 09:03:09;;;;;;;10.27;6.80;;;26.00;46.60;;;;;;5022848;28;20294;-61
2023/06/26 09:05:36;;;;;;;10.93;6.03;;;26.10;46.60;;;;;;5025940;28;20180;-57
2023/06/26 09:08:01;;;;;;;12.40;6.90;;;26.10;46.50;;;;;;5017661;28;20470;-58
2023/06/26 09:10:27;;;;;;;7.30;6.10;;;26.20;46.50;;;;;;5019021;28;20528;-59
2023/06/26 09:12:57;;;;;;;7.10;6.00;;;26.30;47.10;;;;;;5021203;28;20556;-61
2023/06/26 09:15:23;;;;;;;6.67;5.97;;;26.30;46.40;;;;;;5023470;28;20599;-61
2023/06/26 09:17:49;;;;;;;7.30;6.40;;;26.40;46.50;;;;;;5018926;28;21026;-58
2023/06/26 09:20:15;;;;;;;7.33;6.53;;;26.40;47.40;;;;;;5018926;28;20180;-60
2023/06/26 09:22:42;;;;;;;12.07;6.90;;;26.50;46.30;;;;;;5024371;28;20722;-60
2023/06/26 09:25:09;;;;;;;7.43;5.93;;;26.50;45.60;;;;;;5023957;28;20438;-58
2023/06/26 09:27:36;;;;;;;7.73;6.53;;;26.50;45.20;;;;;;5018929;28;20450;-60
2023/06/26 09:30:09;;;;;;;11.07;7.17;;;26.60;46.60;;;;;;5016425;28;21006;-59
2023/06/26 09:32:37;;;;;;;10.80;6.90;;;26.70;46.10;;;;;;5022900;28;20438;-60
2023/06/26 09:35:04;;;;;;;11.33;6.67;;;26.70;45.20;;;;;;5024369;28;20445;-60
2023/06/26 09:37:30;;;;;;;8.13;6.67;;;26.80;45.80;;;;;;5020337;28;20478;-62
2023/06/26 09:39:55;;;;;;;7.67;6.80;;;26.90;45.40;;;;;;5025220;28;20433;-60
2023/06/26 09:42:21;;;;;;;8.97;7.17;;;27.00;45.40;;;;;;5016480;28;21192;-61
2023/06/26 09:44:47;;;;;;;8.57;7.43;;;27.20;45.40;;;;;;5018371;28;20234;-59
2023/06/26 09:47:17;;;;;;;7.73;6.20;;;27.30;46.20;;;;;;5022547;28;20191;-58
2023/06/26 09:49:43;;;;;;;7.77;6.97;;;27.50;45.60;;;;;;5020878;28;20179;-60
2023/06/26 09:52:10;;;;;;;9.33;6.67;;;27.60;44.90;;;;;;5017574;28;20191;-57
2023/06/26 09:54:36;;;;;;;11.00;7.10;;;27.70;44.50;;;;;;5020322;28;20254;-60
2023/06/26 09:57:17;;;;;;;8.40;7.30;;;27.70;43.90;;;;;;5017159;28;20196;-59
2023/06/26 09:59:46;;;;;;;8.37;6.70;;;27.60;43.10;;;;;;5012142;28;20186;-57
2023/06/26 10:02:12;;;;;;;8.80;6.57;;;27.60;43.60;;;;;;5020365;28;20203;-61
2023/06/26 10:04:39;;;;;;;9.43;6.53;;;27.60;43.80;;;;;;5016277;28;20175;-62
2023/06/26 10:07:11;;;;;;;7.93;7.10;;;27.80;44.70;;;;;;5017222;28;20679;-63
2023/06/26 10:09:41;;;;;;;8.60;6.87;;;27.80;44.10;;;;;;5016805;28;20175;-61
2023/06/26 10:12:17;;;;;;;11.63;7.13;;;27.70;44.40;;;;;;5013640;28;20191;-61
2023/06/26 10:14:43;;;;;;;9.40;7.10;;;27.60;43.70;;;;;;5010039;28;20179;-60
2023/06/26 10:17:11;;;;;;;8.27;7.00;;;27.50;43.90;;;;;;5012762;28;20175;-63
2023/06/26 10:19:39;;;;;;;8.93;7.10;;;27.40;44.20;;;;;;5012053;28;20198;-60
2023/06/26 10:22:05;;;;;;;10.03;7.50;;;27.50;44.00;;;;;;5008328;28;20216;-63
2023/06/26 10:24:33;;;;;;;10.33;7.47;;;27.70;44.40;;;;;;5012286;28;20190;-61
2023/06/26 10:27:05;;;;;;;7.20;6.27;;;27.90;43.60;;;;;;5015611;28;20171;-63
2023/06/26 10:29:31;;;;;;;7.33;6.63;;;28.20;43.90;;;;;;5013495;28;20199;-64
2023/06/26 10:32:00;;;;;;;12.70;7.20;;;28.40;42.80;;;;;;5014889;28;20234;-65
2023/06/26 10:34:25;;;;;;;11.40;7.43;;;28.50;42.20;;;;;;5016704;28;20191;-64
2023/06/26 10:37:01;;;;;;;9.73;7.23;;;28.50;42.60;;;;;;5030555;28;20191;-64
2023/06/26 10:39:27;;;;;;;8.17;7.17;;;28.70;42.50;;;;;;5028050;28;20199;-65
2023/06/26 10:42:09;;;;;;;7.95;7.15;;;28.80;42.10;;;;;;5035806;28;20268;-66
2023/06/26 10:44:43;;;;;;;9.20;7.30;;;28.90;41.90;;;;;;5029027;28;20187;-63
2023/06/26 10:47:09;;;;;;;12.60;7.65;;;28.90;42.70;;;;;;5026581;28;20183;-62
2023/06/26 10:49:36;;;;;;;7.85;6.38;;;28.80;42.60;;;;;;5018523;28;20195;-63
2023/06/26 10:52:02;;;;;;;11.75;7.00;;;28.60;42.50;;;;;;5019148;28;20179;-61
2023/06/26 10:54:35;;;;;;;8.50;6.75;;;28.60;41.60;;;;;;5017870;28;20559;-63
2023/06/26 10:57:02;;;;;;;8.43;6.28;;;28.60;41.90;;;;;;5018336;28;20187;-62
2023/06/26 10:59:30;;;;;;;8.77;6.93;;;28.80;41.30;;;;;;5025533;28;20195;-64
2023/06/26 11:02:05;;;;;;;8.02;7.18;;;28.90;41.90;;;;;;5017367;28;20219;-63
2023/06/26 11:04:40;;;;;;;9.98;7.43;;;28.90;40.80;;;;;;5019519;28;20177;-63
2023/06/26 11:07:20;;;;;;;9.60;7.88;;;28.70;42.50;;;;;;5021560;28;20178;-62
2023/06/26 11:10:05;;;;;;;8.80;6.88;;;28.50;42.80;;;;;;5024145;28;20228;-62
2023/06/26 11:12:44;;;;;;;8.45;6.95;;;28.30;42.00;;;;;;5022963;28;20171;-62
2023/06/26 11:15:15;;;;;;;9.50;7.18;;;28.10;42.30;;;;;;5030550;28;20194;-62
2023/06/26 11:17:42;;;;;;;11.07;7.25;;;27.90;43.30;;;;;;5028491;28;20789;-62
2023/06/26 11:20:12;;;;;;;9.13;6.13;;;27.60;43.90;;;;;;5030735;28;20199;-62
2023/06/26 11:22:40;;;;;;;8.83;7.07;;;27.50;44.90;;;;;;5027461;28;20249;-63
2023/06/26 11:25:07;;;;;;;7.33;6.63;;;27.20;44.40;;;;;;5033589;28;20181;-63
2023/06/26 11:27:42;;;;;;;10.27;7.10;;;27.10;44.90;;;;;;5029204;28;20195;-61
2023/06/26 11:30:10;;;;;;;11.53;7.60;;;27.00;44.50;;;;;;5025943;28;20183;-63
2023/06/26 11:32:37;;;;;;;8.17;7.20;;;26.90;45.00;;;;;;5028509;28;20218;-64
2023/06/26 11:35:04;;;;;;;13.83;6.97;;;26.80;45.50;;;;;;5029547;28;20624;-62
2023/06/26 11:37:31;;;;;;;14.77;7.30;;;26.80;45.90;;;;;;5016562;28;20277;-62
2023/06/26 11:39:57;;;;;;;9.63;7.10;;;26.80;46.60;;;;;;5022720;28;20179;-63
2023/06/26 11:42:25;;;;;;;8.40;7.17;;;26.80;47.00;;;;;;5023807;28;20200;-63
2023/06/26 11:44:51;;;;;;;13.57;7.00;;;26.80;46.70;;;;;;5024895;28;20168;-64
2023/06/26 11:47:18;;;;;;;8.43;7.30;;;26.70;47.10;;;;;;5026663;28;20210;-62
2023/06/26 11:49:49;;;;;;;10.00;7.90;;;26.70;47.20;;;;;;5023426;28;20175;-61
2023/06/26 11:52:16;;;;;;;9.40;7.93;;;26.50;47.60;;;;;;5027769;28;20186;-62
2023/06/26 11:54:42;;;;;;;10.93;7.80;;;26.50;47.70;;;;;;5026899;28;20186;-63
2023/06/26 11:57:13;;;;;;;12.00;8.23;;;26.40;48.00;;;;;;5024797;28;20191;-63
2023/06/26 11:59:40;;;;;;;13.63;7.83;;;26.30;48.60;;;;;;5019807;28;20262;-62
2023/06/26 12:02:10;;;;;;;9.07;7.40;;;26.30;48.50;;;;;;5027230;28;20211;-63
2023/06/26 12:04:38;;;;;;;9.53;7.63;;;26.30;48.80;;;;;;5024585;28;20426;-61
2023/06/26 12:07:08;;;;;;;10.70;7.30;;;26.30;49.30;;;;;;5025667;28;21022;-63
2023/06/26 12:09:38;;;;;;;9.73;8.57;;;26.30;49.00;;;;;;5027390;28;20572;-63
2023/06/26 12:12:04;;;;;;;11.10;7.63;;;26.30;49.00;;;;;;5021614;28;20258;-61
2023/06/26 12:14:31;;;;;;;10.10;8.17;;;26.30;49.20;;;;;;5032639;28;20449;-62
2023/06/26 12:17:04;;;;;;;14.40;7.90;;;26.40;49.20;;;;;;5024762;28;20508;-63
2023/06/26 12:19:30;;;;;;;15.47;7.90;;;26.50;49.50;;;;;;5021482;28;20449;-62
2023/06/26 12:21:56;;;;;;;11.60;7.90;;;26.60;49.30;;;;;;5025323;28;21166;-63
2023/06/26 12:24:23;;;;;;;10.77;7.97;;;26.70;49.80;;;;;;5020496;28;20184;-62
2023/06/26 12:26:54;;;;;;;10.10;7.93;;;26.90;50.30;;;;;;5027785;28;20873;-61
2023/06/26 12:29:20;;;;;;;13.10;8.30;;;26.90;49.70;;;;;;5026180;28;20191;-64
2023/06/26 12:31:52;;;;;;;14.00;8.33;;;27.00;49.70;;;;;;5027052;28;20191;-63
2023/06/26 12:34:20;;;;;;;8.10;7.27;;;27.30;50.70;;;;;;5019463;28;20983;-63
2023/06/26 12:36:48;;;;;;;12.80;7.90;;;27.50;50.20;;;;;;5024952;28;20184;-63